sensor_id;sensor_type;location;lat;lon;timestamp;P1;durP1;ratioP1;P2;durP2;ratioP2
24451;SDS011;13350;50.984;5.822;2023-04-16T00:01:23;3.03;;;1.80;;
24451;SDS011;13350;50.984;5.822;2023-04-16T00:03:52;6.72;;;2.30;;
24451;SDS011;13350;50.984;5.822;2023-04-16T00:06:20;3.83;;;2.20;;
24451;SDS011;13350;50.984;5.822;2023-04-16T00:08:48;5.20;;;2.22;;
24451;SDS011;13350;50.984;5.822;2023-04-16T00:11:15;7.35;;;2.30;;
24451;SDS011;13350;50.984;5.822;2023-04-16T00:13:43;6.25;;;2.90;;
24451;SDS011;13350;50.984;5.822;2023-04-16T00:16:10;3.90;;;2.35;;
24451;SDS011;13350;50.984;5.822;2023-04-16T00:18:37;5.55;;;2.80;;
24451;SDS011;13350;50.984;5.822;2023-04-16T00:21:07;5.88;;;2.80;;
24451;SDS011;13350;50.984;5.822;2023-04-16T00:23:34;4.78;;;2.85;;
24451;SDS011;13350;50.984;5.822;2023-04-16T00:26:02;9.05;;;3.30;;
24451;SDS011;13350;50.984;5.822;2023-04-16T00:28:29;7.25;;;3.15;;
24451;SDS011;13350;50.984;5.822;2023-04-16T00:30:56;5.57;;;2.90;;
24451;SDS011;13350;50.984;5.822;2023-04-16T00:33:23;6.97;;;2.83;;
24451;SDS011;13350;50.984;5.822;2023-04-16T00:35:51;4.97;;;2.70;;
24451;SDS011;13350;50.984;5.822;2023-04-16T00:38:19;5.28;;;2.70;;
24451;SDS011;13350;50.984;5.822;2023-04-16T00:40:47;6.07;;;3.05;;
24451;SDS011;13350;50.984;5.822;2023-04-16T00:43:19;8.48;;;2.83;;
24451;SDS011;13350;50.984;5.822;2023-04-16T00:45:49;6.43;;;3.00;;
24451;SDS011;13350;50.984;5.822;2023-04-16T00:48:17;8.38;;;2.95;;
24451;SDS011;13350;50.984;5.822;2023-04-16T00:50:46;5.38;;;2.90;;
24451;SDS011;13350;50.984;5.822;2023-04-16T00:53:14;6.97;;;2.90;;
24451;SDS011;13350;50.984;5.822;2023-04-16T00:55:43;7.47;;;2.63;;
24451;SDS011;13350;50.984;5.822;2023-04-16T00:58:10;5.53;;;2.90;;
24451;SDS011;13350;50.984;5.822;2023-04-16T01:00:38;5.15;;;3.35;;
24451;SDS011;13350;50.984;5.822;2023-04-16T01:03:05;6.20;;;2.92;;
24451;SDS011;13350;50.984;5.822;2023-04-16T01:05:34;5.03;;;3.17;;
24451;SDS011;13350;50.984;5.822;2023-04-16T01:08:01;5.57;;;3.22;;
24451;SDS011;13350;50.984;5.822;2023-04-16T01:10:28;6.85;;;2.97;;
24451;SDS011;13350;50.984;5.822;2023-04-16T01:12:57;7.53;;;3.45;;
24451;SDS011;13350;50.984;5.822;2023-04-16T01:15:25;4.90;;;2.55;;
24451;SDS011;13350;50.984;5.822;2023-04-16T01:17:52;4.30;;;2.92;;
24451;SDS011;13350;50.984;5.822;2023-04-16T01:20:19;7.72;;;3.80;;
24451;SDS011;13350;50.984;5.822;2023-04-16T01:22:48;7.10;;;3.28;;
24451;SDS011;13350;50.984;5.822;2023-04-16T01:25:15;6.25;;;3.30;;
24451;SDS011;13350;50.984;5.822;2023-04-16T01:27:42;8.43;;;3.85;;
24451;SDS011;13350;50.984;5.822;2023-04-16T01:30:10;8.73;;;3.90;;
24451;SDS011;13350;50.984;5.822;2023-04-16T01:32:37;5.80;;;3.97;;
24451;SDS011;13350;50.984;5.822;2023-04-16T01:35:05;11.13;;;3.78;;
24451;SDS011;13350;50.984;5.822;2023-04-16T01:37:32;6.47;;;3.60;;
24451;SDS011;13350;50.984;5.822;2023-04-16T01:40:01;11.50;;;4.13;;
24451;SDS011;13350;50.984;5.822;2023-04-16T01:42:28;6.88;;;3.95;;
24451;SDS011;13350;50.984;5.822;2023-04-16T01:44:56;12.05;;;4.18;;
24451;SDS011;13350;50.984;5.822;2023-04-16T01:47:23;7.82;;;3.60;;
24451;SDS011;13350;50.984;5.822;2023-04-16T01:49:50;7.03;;;4.07;;
24451;SDS011;13350;50.984;5.822;2023-04-16T01:52:17;7.85;;;4.65;;
24451;SDS011;13350;50.984;5.822;2023-04-16T01:54:45;10.20;;;4.28;;
24451;SDS011;13350;50.984;5.822;2023-04-16T01:57:13;7.90;;;4.28;;
24451;SDS011;13350;50.984;5.822;2023-04-16T01:59:41;6.70;;;4.32;;
24451;SDS011;13350;50.984;5.822;2023-04-16T02:02:08;7.50;;;4.20;;
24451;SDS011;13350;50.984;5.822;2023-04-16T02:04:37;9.05;;;4.88;;
24451;SDS011;13350;50.984;5.822;2023-04-16T02:07:05;7.53;;;4.05;;
24451;SDS011;13350;50.984;5.822;2023-04-16T02:09:33;7.45;;;4.18;;
24451;SDS011;13350;50.984;5.822;2023-04-16T02:12:01;9.50;;;4.72;;
24451;SDS011;13350;50.984;5.822;2023-04-16T02:14:30;9.30;;;4.43;;
24451;SDS011;13350;50.984;5.822;2023-04-16T02:16:57;6.20;;;4.43;;
24451;SDS011;13350;50.984;5.822;2023-04-16T02:19:25;8.73;;;4.82;;
24451;SDS011;13350;50.984;5.822;2023-04-16T02:21:53;6.55;;;4.13;;
24451;SDS011;13350;50.984;5.822;2023-04-16T02:24:20;8.73;;;4.43;;
24451;SDS011;13350;50.984;5.822;2023-04-16T02:26:47;8.52;;;4.18;;
24451;SDS011;13350;50.984;5.822;2023-04-16T02:29:14;9.80;;;4.68;;
24451;SDS011;13350;50.984;5.822;2023-04-16T02:31:43;10.82;;;4.95;;
24451;SDS011;13350;50.984;5.822;2023-04-16T02:34:11;8.65;;;4.82;;
24451;SDS011;13350;50.984;5.822;2023-04-16T02:36:38;7.28;;;4.50;;
24451;SDS011;13350;50.984;5.822;2023-04-16T02:39:05;8.07;;;4.90;;
24451;SDS011;13350;50.984;5.822;2023-04-16T02:41:33;9.30;;;5.65;;
24451;SDS011;13350;50.984;5.822;2023-04-16T02:44:00;9.00;;;5.47;;
24451;SDS011;13350;50.984;5.822;2023-04-16T02:46:27;9.18;;;5.53;;
24451;SDS011;13350;50.984;5.822;2023-04-16T02:48:56;10.85;;;5.20;;
24451;SDS011;13350;50.984;5.822;2023-04-16T02:51:23;11.63;;;4.75;;
24451;SDS011;13350;50.984;5.822;2023-04-16T02:53:51;9.75;;;4.97;;
24451;SDS011;13350;50.984;5.822;2023-04-16T02:56:19;9.40;;;4.82;;
24451;SDS011;13350;50.984;5.822;2023-04-16T02:58:46;6.65;;;4.63;;
24451;SDS011;13350;50.984;5.822;2023-04-16T03:01:13;8.48;;;4.85;;
24451;SDS011;13350;50.984;5.822;2023-04-16T03:03:42;9.23;;;5.10;;
24451;SDS011;13350;50.984;5.822;2023-04-16T03:06:10;7.88;;;5.13;;
24451;SDS011;13350;50.984;5.822;2023-04-16T03:08:38;9.93;;;5.53;;
24451;SDS011;13350;50.984;5.822;2023-04-16T03:11:05;9.48;;;4.95;;
24451;SDS011;13350;50.984;5.822;2023-04-16T03:13:32;10.48;;;5.15;;
24451;SDS011;13350;50.984;5.822;2023-04-16T03:16:00;10.23;;;5.13;;
24451;SDS011;13350;50.984;5.822;2023-04-16T03:18:27;12.32;;;5.95;;
24451;SDS011;13350;50.984;5.822;2023-04-16T03:20:55;8.48;;;5.28;;
24451;SDS011;13350;50.984;5.822;2023-04-16T03:23:23;9.43;;;5.10;;
24451;SDS011;13350;50.984;5.822;2023-04-16T03:25:50;11.00;;;5.28;;
24451;SDS011;13350;50.984;5.822;2023-04-16T03:28:17;10.05;;;5.00;;
24451;SDS011;13350;50.984;5.822;2023-04-16T03:30:48;9.02;;;5.32;;
24451;SDS011;13350;50.984;5.822;2023-04-16T03:33:16;7.10;;;5.45;;
24451;SDS011;13350;50.984;5.822;2023-04-16T03:35:44;9.80;;;5.30;;
24451;SDS011;13350;50.984;5.822;2023-04-16T03:38:11;9.20;;;5.03;;
24451;SDS011;13350;50.984;5.822;2023-04-16T03:40:39;11.07;;;5.05;;
24451;SDS011;13350;50.984;5.822;2023-04-16T03:43:07;8.75;;;5.10;;
24451;SDS011;13350;50.984;5.822;2023-04-16T03:45:34;6.40;;;5.20;;
24451;SDS011;13350;50.984;5.822;2023-04-16T03:48:01;7.75;;;5.25;;
24451;SDS011;13350;50.984;5.822;2023-04-16T03:50:28;11.88;;;5.72;;
24451;SDS011;13350;50.984;5.822;2023-04-16T03:52:55;7.78;;;5.50;;
24451;SDS011;13350;50.984;5.822;2023-04-16T03:55:23;10.77;;;6.47;;
24451;SDS011;13350;50.984;5.822;2023-04-16T03:57:51;12.82;;;6.25;;
24451;SDS011;13350;50.984;5.822;2023-04-16T04:00:18;10.18;;;6.55;;
24451;SDS011;13350;50.984;5.822;2023-04-16T04:02:46;11.23;;;6.22;;
24451;SDS011;13350;50.984;5.822;2023-04-16T04:05:13;11.23;;;6.50;;
24451;SDS011;13350;50.984;5.822;2023-04-16T04:07:40;9.50;;;5.97;;
24451;SDS011;13350;50.984;5.822;2023-04-16T04:10:08;12.00;;;7.18;;
24451;SDS011;13350;50.984;5.822;2023-04-16T04:12:35;11.38;;;6.78;;
24451;SDS011;13350;50.984;5.822;2023-04-16T04:15:04;10.15;;;6.53;;
24451;SDS011;13350;50.984;5.822;2023-04-16T04:17:32;10.02;;;6.70;;
24451;SDS011;13350;50.984;5.822;2023-04-16T04:19:59;10.52;;;6.80;;
24451;SDS011;13350;50.984;5.822;2023-04-16T04:22:27;8.95;;;6.75;;
24451;SDS011;13350;50.984;5.822;2023-04-16T04:24:54;16.15;;;7.68;;
24451;SDS011;13350;50.984;5.822;2023-04-16T04:27:22;10.32;;;6.70;;
24451;SDS011;13350;50.984;5.822;2023-04-16T04:29:49;12.50;;;7.28;;
24451;SDS011;13350;50.984;5.822;2023-04-16T04:32:17;12.45;;;7.10;;
24451;SDS011;13350;50.984;5.822;2023-04-16T04:34:44;10.98;;;7.72;;
24451;SDS011;13350;50.984;5.822;2023-04-16T04:37:12;10.70;;;7.05;;
24451;SDS011;13350;50.984;5.822;2023-04-16T04:39:39;9.68;;;6.88;;
24451;SDS011;13350;50.984;5.822;2023-04-16T04:42:06;10.93;;;7.47;;
24451;SDS011;13350;50.984;5.822;2023-04-16T04:44:34;9.15;;;7.05;;
24451;SDS011;13350;50.984;5.822;2023-04-16T04:47:01;10.43;;;7.40;;
24451;SDS011;13350;50.984;5.822;2023-04-16T04:49:29;10.00;;;6.68;;
24451;SDS011;13350;50.984;5.822;2023-04-16T04:51:57;10.65;;;6.75;;
24451;SDS011;13350;50.984;5.822;2023-04-16T04:54:24;12.52;;;7.25;;
24451;SDS011;13350;50.984;5.822;2023-04-16T04:56:51;11.40;;;7.32;;
24451;SDS011;13350;50.984;5.822;2023-04-16T04:59:19;9.38;;;6.50;;
24451;SDS011;13350;50.984;5.822;2023-04-16T05:01:46;9.10;;;7.28;;
24451;SDS011;13350;50.984;5.822;2023-04-16T05:04:14;13.75;;;7.60;;
24451;SDS011;13350;50.984;5.822;2023-04-16T05:06:42;10.20;;;7.63;;
24451;SDS011;13350;50.984;5.822;2023-04-16T05:09:10;9.73;;;7.65;;
24451;SDS011;13350;50.984;5.822;2023-04-16T05:11:37;10.25;;;8.02;;
24451;SDS011;13350;50.984;5.822;2023-04-16T05:14:06;11.55;;;7.82;;
24451;SDS011;13350;50.984;5.822;2023-04-16T05:19:02;11.40;;;7.57;;
24451;SDS011;13350;50.984;5.822;2023-04-16T05:21:29;9.98;;;7.50;;
24451;SDS011;13350;50.984;5.822;2023-04-16T05:23:58;9.02;;;7.93;;
24451;SDS011;13350;50.984;5.822;2023-04-16T05:26:25;11.65;;;8.75;;
24451;SDS011;13350;50.984;5.822;2023-04-16T05:28:52;11.13;;;8.25;;
24451;SDS011;13350;50.984;5.822;2023-04-16T05:31:19;11.38;;;7.82;;
24451;SDS011;13350;50.984;5.822;2023-04-16T05:33:46;13.90;;;8.55;;
24451;SDS011;13350;50.984;5.822;2023-04-16T05:36:14;10.90;;;8.18;;
24451;SDS011;13350;50.984;5.822;2023-04-16T05:38:41;9.93;;;8.07;;
24451;SDS011;13350;50.984;5.822;2023-04-16T05:41:09;9.70;;;8.57;;
24451;SDS011;13350;50.984;5.822;2023-04-16T05:43:36;12.43;;;9.20;;
24451;SDS011;13350;50.984;5.822;2023-04-16T05:46:04;11.75;;;8.60;;
24451;SDS011;13350;50.984;5.822;2023-04-16T05:48:31;10.63;;;8.65;;
24451;SDS011;13350;50.984;5.822;2023-04-16T05:50:58;12.57;;;9.27;;
24451;SDS011;13350;50.984;5.822;2023-04-16T05:53:26;12.50;;;9.93;;
24451;SDS011;13350;50.984;5.822;2023-04-16T05:55:53;13.13;;;10.07;;
24451;SDS011;13350;50.984;5.822;2023-04-16T05:58:22;12.57;;;9.68;;
24451;SDS011;13350;50.984;5.822;2023-04-16T06:00:49;14.07;;;9.48;;
24451;SDS011;13350;50.984;5.822;2023-04-16T06:03:16;15.35;;;11.43;;
24451;SDS011;13350;50.984;5.822;2023-04-16T06:05:43;12.25;;;9.68;;
24451;SDS011;13350;50.984;5.822;2023-04-16T06:08:11;14.07;;;9.93;;
24451;SDS011;13350;50.984;5.822;2023-04-16T06:10:38;15.40;;;11.13;;
24451;SDS011;13350;50.984;5.822;2023-04-16T06:13:05;15.75;;;11.35;;
24451;SDS011;13350;50.984;5.822;2023-04-16T06:15:34;15.38;;;11.63;;
24451;SDS011;13350;50.984;5.822;2023-04-16T06:18:01;14.18;;;11.15;;
24451;SDS011;13350;50.984;5.822;2023-04-16T06:20:28;15.63;;;11.57;;
24451;SDS011;13350;50.984;5.822;2023-04-16T06:22:56;15.40;;;11.10;;
24451;SDS011;13350;50.984;5.822;2023-04-16T06:25:23;16.35;;;12.05;;
24451;SDS011;13350;50.984;5.822;2023-04-16T06:27:50;16.00;;;10.70;;
24451;SDS011;13350;50.984;5.822;2023-04-16T06:30:17;14.00;;;11.05;;
24451;SDS011;13350;50.984;5.822;2023-04-16T06:32:46;17.20;;;12.00;;
24451;SDS011;13350;50.984;5.822;2023-04-16T06:35:14;14.27;;;11.82;;
24451;SDS011;13350;50.984;5.822;2023-04-16T06:37:44;16.27;;;10.70;;
24451;SDS011;13350;50.984;5.822;2023-04-16T06:40:11;15.60;;;11.73;;
24451;SDS011;13350;50.984;5.822;2023-04-16T06:42:39;14.65;;;11.23;;
24451;SDS011;13350;50.984;5.822;2023-04-16T06:45:06;15.27;;;11.30;;
24451;SDS011;13350;50.984;5.822;2023-04-16T06:47:34;13.50;;;11.23;;
24451;SDS011;13350;50.984;5.822;2023-04-16T06:50:03;15.65;;;11.10;;
24451;SDS011;13350;50.984;5.822;2023-04-16T06:52:31;16.67;;;11.60;;
24451;SDS011;13350;50.984;5.822;2023-04-16T06:54:58;16.27;;;10.30;;
24451;SDS011;13350;50.984;5.822;2023-04-16T06:57:26;16.50;;;10.45;;
24451;SDS011;13350;50.984;5.822;2023-04-16T06:59:53;13.60;;;10.55;;
24451;SDS011;13350;50.984;5.822;2023-04-16T07:02:20;15.88;;;10.65;;
24451;SDS011;13350;50.984;5.822;2023-04-16T07:04:47;14.23;;;10.20;;
24451;SDS011;13350;50.984;5.822;2023-04-16T07:07:17;12.95;;;9.32;;
24451;SDS011;13350;50.984;5.822;2023-04-16T07:09:45;11.18;;;8.93;;
24451;SDS011;13350;50.984;5.822;2023-04-16T07:12:12;13.15;;;9.48;;
24451;SDS011;13350;50.984;5.822;2023-04-16T07:14:39;11.93;;;8.77;;
24451;SDS011;13350;50.984;5.822;2023-04-16T07:17:07;13.88;;;8.73;;
24451;SDS011;13350;50.984;5.822;2023-04-16T07:19:34;15.55;;;9.52;;
24451;SDS011;13350;50.984;5.822;2023-04-16T07:22:01;10.68;;;7.95;;
24451;SDS011;13350;50.984;5.822;2023-04-16T07:24:30;11.85;;;8.43;;
24451;SDS011;13350;50.984;5.822;2023-04-16T07:26:57;11.27;;;8.38;;
24451;SDS011;13350;50.984;5.822;2023-04-16T07:29:24;10.77;;;8.10;;
24451;SDS011;13350;50.984;5.822;2023-04-16T07:31:52;11.80;;;8.32;;
24451;SDS011;13350;50.984;5.822;2023-04-16T07:34:19;11.88;;;7.60;;
24451;SDS011;13350;50.984;5.822;2023-04-16T07:36:46;10.35;;;7.75;;
24451;SDS011;13350;50.984;5.822;2023-04-16T07:39:14;11.10;;;7.78;;
24451;SDS011;13350;50.984;5.822;2023-04-16T07:41:42;13.05;;;9.25;;
24451;SDS011;13350;50.984;5.822;2023-04-16T07:44:10;9.73;;;7.70;;
24451;SDS011;13350;50.984;5.822;2023-04-16T07:46:37;12.30;;;8.02;;
24451;SDS011;13350;50.984;5.822;2023-04-16T07:49:04;11.20;;;7.78;;
24451;SDS011;13350;50.984;5.822;2023-04-16T07:51:32;10.45;;;7.57;;
24451;SDS011;13350;50.984;5.822;2023-04-16T07:53:59;9.43;;;7.70;;
24451;SDS011;13350;50.984;5.822;2023-04-16T07:56:27;11.07;;;7.32;;
24451;SDS011;13350;50.984;5.822;2023-04-16T07:58:55;13.45;;;8.35;;
24451;SDS011;13350;50.984;5.822;2023-04-16T08:01:22;11.02;;;7.45;;
24451;SDS011;13350;50.984;5.822;2023-04-16T08:03:50;12.10;;;7.65;;
24451;SDS011;13350;50.984;5.822;2023-04-16T08:06:17;12.70;;;7.68;;
24451;SDS011;13350;50.984;5.822;2023-04-16T08:08:44;12.35;;;7.53;;
24451;SDS011;13350;50.984;5.822;2023-04-16T08:11:11;11.20;;;7.95;;
24451;SDS011;13350;50.984;5.822;2023-04-16T08:13:39;9.27;;;7.40;;
24451;SDS011;13350;50.984;5.822;2023-04-16T08:16:08;8.98;;;7.50;;
24451;SDS011;13350;50.984;5.822;2023-04-16T08:18:35;12.88;;;8.48;;
24451;SDS011;13350;50.984;5.822;2023-04-16T08:21:02;10.50;;;7.60;;
24451;SDS011;13350;50.984;5.822;2023-04-16T08:23:30;12.38;;;7.80;;
24451;SDS011;13350;50.984;5.822;2023-04-16T08:25:59;10.95;;;7.60;;
24451;SDS011;13350;50.984;5.822;2023-04-16T08:28:27;9.90;;;7.07;;
24451;SDS011;13350;50.984;5.822;2023-04-16T08:30:54;9.02;;;7.00;;
24451;SDS011;13350;50.984;5.822;2023-04-16T08:33:23;12.90;;;7.45;;
24451;SDS011;13350;50.984;5.822;2023-04-16T08:35:50;11.50;;;7.28;;
24451;SDS011;13350;50.984;5.822;2023-04-16T08:38:18;11.20;;;7.53;;
24451;SDS011;13350;50.984;5.822;2023-04-16T08:40:45;10.73;;;7.47;;
24451;SDS011;13350;50.984;5.822;2023-04-16T08:43:14;9.73;;;7.22;;
24451;SDS011;13350;50.984;5.822;2023-04-16T08:45:43;9.68;;;7.50;;
24451;SDS011;13350;50.984;5.822;2023-04-16T08:48:13;10.48;;;7.80;;
24451;SDS011;13350;50.984;5.822;2023-04-16T08:50:42;9.25;;;7.18;;
24451;SDS011;13350;50.984;5.822;2023-04-16T08:53:10;10.70;;;6.10;;
24451;SDS011;13350;50.984;5.822;2023-04-16T08:55:42;9.20;;;6.60;;
24451;SDS011;13350;50.984;5.822;2023-04-16T08:58:14;9.48;;;6.70;;
24451;SDS011;13350;50.984;5.822;2023-04-16T09:00:44;10.07;;;7.68;;
24451;SDS011;13350;50.984;5.822;2023-04-16T09:03:11;11.13;;;7.57;;
24451;SDS011;13350;50.984;5.822;2023-04-16T09:05:39;8.43;;;6.70;;
24451;SDS011;13350;50.984;5.822;2023-04-16T09:08:09;8.52;;;5.88;;
24451;SDS011;13350;50.984;5.822;2023-04-16T09:10:36;7.10;;;6.32;;
24451;SDS011;13350;50.984;5.822;2023-04-16T09:13:03;8.13;;;5.65;;
24451;SDS011;13350;50.984;5.822;2023-04-16T09:15:32;8.57;;;5.88;;
24451;SDS011;13350;50.984;5.822;2023-04-16T09:18:00;7.70;;;5.15;;
24451;SDS011;13350;50.984;5.822;2023-04-16T09:20:28;8.02;;;6.10;;
24451;SDS011;13350;50.984;5.822;2023-04-16T09:22:56;6.55;;;4.95;;
24451;SDS011;13350;50.984;5.822;2023-04-16T09:25:24;7.50;;;5.32;;
24451;SDS011;13350;50.984;5.822;2023-04-16T09:27:51;7.38;;;5.70;;
24451;SDS011;13350;50.984;5.822;2023-04-16T09:30:19;6.10;;;5.28;;
24451;SDS011;13350;50.984;5.822;2023-04-16T09:32:48;7.70;;;5.47;;
24451;SDS011;13350;50.984;5.822;2023-04-16T09:35:17;7.70;;;5.60;;
24451;SDS011;13350;50.984;5.822;2023-04-16T09:37:53;5.80;;;4.97;;
24451;SDS011;13350;50.984;5.822;2023-04-16T09:40:26;7.63;;;5.28;;
24451;SDS011;13350;50.984;5.822;2023-04-16T09:42:55;7.20;;;4.70;;
24451;SDS011;13350;50.984;5.822;2023-04-16T09:45:24;6.40;;;4.90;;
24451;SDS011;13350;50.984;5.822;2023-04-16T09:48:01;8.25;;;5.30;;
24451;SDS011;13350;50.984;5.822;2023-04-16T09:50:30;9.45;;;5.20;;
24451;SDS011;13350;50.984;5.822;2023-04-16T09:52:57;7.35;;;4.93;;
24451;SDS011;13350;50.984;5.822;2023-04-16T09:55:29;6.88;;;4.57;;
24451;SDS011;13350;50.984;5.822;2023-04-16T09:57:59;8.43;;;5.35;;
24451;SDS011;13350;50.984;5.822;2023-04-16T22:51:55;14.43;;;11.38;;
24451;SDS011;13350;50.984;5.822;2023-04-16T22:54:24;14.98;;;11.13;;
24451;SDS011;13350;50.984;5.822;2023-04-16T22:56:53;14.38;;;11.05;;
24451;SDS011;13350;50.984;5.822;2023-04-16T22:59:21;14.35;;;11.57;;
24451;SDS011;13350;50.984;5.822;2023-04-16T23:01:49;14.00;;;11.50;;
24451;SDS011;13350;50.984;5.822;2023-04-16T23:04:16;16.35;;;12.32;;
24451;SDS011;13350;50.984;5.822;2023-04-16T23:06:44;16.25;;;12.75;;
24451;SDS011;13350;50.984;5.822;2023-04-16T23:09:13;15.50;;;12.85;;
24451;SDS011;13350;50.984;5.822;2023-04-16T23:11:40;16.60;;;12.18;;
24451;SDS011;13350;50.984;5.822;2023-04-16T23:14:07;15.43;;;12.70;;
24451;SDS011;13350;50.984;5.822;2023-04-16T23:16:34;15.30;;;12.38;;
24451;SDS011;13350;50.984;5.822;2023-04-16T23:19:02;15.57;;;12.55;;
24451;SDS011;13350;50.984;5.822;2023-04-16T23:21:29;15.60;;;12.93;;
24451;SDS011;13350;50.984;5.822;2023-04-16T23:23:56;17.33;;;13.63;;
24451;SDS011;13350;50.984;5.822;2023-04-16T23:26:25;19.13;;;14.70;;
24451;SDS011;13350;50.984;5.822;2023-04-16T23:28:52;18.58;;;13.82;;
24451;SDS011;13350;50.984;5.822;2023-04-16T23:31:21;19.33;;;13.88;;
24451;SDS011;13350;50.984;5.822;2023-04-16T23:33:48;20.63;;;14.75;;
24451;SDS011;13350;50.984;5.822;2023-04-16T23:36:15;21.45;;;15.38;;
24451;SDS011;13350;50.984;5.822;2023-04-16T23:38:43;20.70;;;14.93;;
24451;SDS011;13350;50.984;5.822;2023-04-16T23:41:10;21.65;;;15.70;;
24451;SDS011;13350;50.984;5.822;2023-04-16T23:43:38;20.02;;;15.13;;
24451;SDS011;13350;50.984;5.822;2023-04-16T23:46:06;17.45;;;14.63;;
24451;SDS011;13350;50.984;5.822;2023-04-16T23:48:33;18.10;;;14.98;;
24451;SDS011;13350;50.984;5.822;2023-04-16T23:51:00;17.13;;;14.20;;
24451;SDS011;13350;50.984;5.822;2023-04-16T23:53:27;18.77;;;13.93;;
24451;SDS011;13350;50.984;5.822;2023-04-16T23:55:54;18.98;;;14.75;;
24451;SDS011;13350;50.984;5.822;2023-04-16T23:58:22;18.08;;;15.15;;
